Overview Statistics Trail Chart Weather Telemetry Raw packets
 

This is the latest recevied weather packets stored in our database for station/object ED4YAF-13. If no packets are shown the sender has not sent any weather packets the latest 10 day(s).

<< 5 6 7 8 9 10 11 >>
Time Temp. Humidity Pressure Rain* Wind** Luminosity Snow
1788457450 26.11° C 20% 1017 hPa - - - -
1788453832 27.78° C 20% 1015.5 hPa - - - -
1788452932 27.78° C 20% 1015.3 hPa - - - -
1788452031 28.33° C 20% 1015 hPa - - - -
1788451132 28.89° C 20% 1014.9 hPa - - - -
1788450233 28.33° C 21% 1014.7 hPa - - - -
1788449332 28.33° C 22% 1015.4 hPa - - - -
1788448439 28.89° C 22% 1015 hPa - - - -
1788447532 28.89° C 22% 1015 hPa - - - -
1788446632 29.44° C 21% 1014.7 hPa - - - -
1788445724 29.44° C 22% 1014.7 hPa - - - -
1788444824 28.33° C 23% 1015.6 hPa - - - -
1788443909 28.89° C 22% 1015.1 hPa - - - -
1788443019 28.89° C 23% 1015 hPa - - - -
1788442110 28.33° C 23% 1015.7 hPa - - - -
1788441209 28.33° C 22% 1015.9 hPa - - - -
1788440309 28.89° C 22% 1015.4 hPa - - - -
1788439417 29.44° C 21% 1015.2 hPa - - - -
1788438509 28.33° C 21% 1016.1 hPa - - - -
1788437616 28.33° C 21% 1015.9 hPa - - - -
1788436716 27.78° C 21% 1016.4 hPa - - - -
1788435809 27.22° C 22% 1016.9 hPa - - - -
1788434908 27.78° C 22% 1016.5 hPa - - - -
1788434003 27.22° C 24% 1017 hPa - - - -
1788433090 26.11° C 27% 1017.9 hPa - - - -

* Rain since midnight (hover to see other rain measurements)
** Current wind speed in m/s (hover to see current wind gust speed)